Glasgow, KY

7:53 PM CDT on August 16, 2017 (GMT -0500)
Glasgow Municipal

Weather History for KGLW - March, 2014

Change the Weather History Date:

Monday, March 24, 2014

  Actual Average Record
Temperature  
Mean Temperature 36 °F -  
Max Temperature 47 °F 61 °F 80 °F (1967)
Min Temperature 25 °F 36 °F 17 °F (1971)
Degree Days  
Heating Degree Days 29    
Moisture  
Dew Point 18 °F    
Average Humidity 49    
Maximum Humidity 74    
Minimum Humidity 26    
Precipitation  
Precipitation 0.00 in - - ()
Sea Level Pressure  
Sea Level Pressure 30.21 in    
Wind  
Wind Speed 3 mph (NNE)    
Max Wind Speed 8 mph    
Max Gust Speed -    
Visibility 10 miles    
Events      
Averages and records for this station are not official NWS values.
T = Trace of Precipitation, MM = Missing Value Source: NWS Daily Summary

Daily Weather History Graph

Daily Weather History Graph

Search for Another Location

Airport or City:

Trip Planner

Search our weather history database for the weather conditions in past years. The results will help you decide how hot, cold, wet, or windy it might be!

Date:

Astronomy

Mar. 24, 2014 Rise Set
Actual Time 6:41 AM CDT 6:59 PM CDT
Civil Twilight 6:15 AM CDT 7:25 PM CDT
Nautical Twilight 5:45 AM CDT 7:55 PM CDT
Astronomical Twilight 5:14 AM CDT 8:26 PM CDT
Moon 2:03 AM CDT (3/24) 12:31 PM CDT (3/24)
Length of Visible Light 13h 09m
Length of Day
12h 17m
Last Quarter, 43% of the Moon is Illuminated
Mar 24
Last Quarter
Mar 30
New
Apr 7
First Quarter
Apr 15
Full
Apr 22
Last Quarter

Hourly Weather History & Observations

Time (CDT) Temp. Windchill Dew Point Humidity Pressure Visibility Wind Dir Wind Speed Gust Speed Precip Events Conditions
12:15 AM 31.1 °F 26.4 °F 19.2 °F 61% 30.30 in 10.0 mi North 4.6 mph - N/A   Clear
12:35 AM 30.4 °F 25.6 °F 19.2 °F 63% 30.30 in 10.0 mi North 4.6 mph - N/A   Clear
12:55 AM 29.8 °F 26.3 °F 19.4 °F 65% 30.30 in 10.0 mi North 3.5 mph - N/A   Clear
1:15 AM 29.8 °F 26.3 °F 19.4 °F 65% 30.30 in 10.0 mi North 3.5 mph - N/A   Clear
1:35 AM 29.5 °F 25.9 °F 19.4 °F 66% 30.30 in 10.0 mi North 3.5 mph - N/A   Clear
1:55 AM 29.7 °F 26.1 °F 19.2 °F 65% 30.29 in 10.0 mi North 3.5 mph - N/A   Clear
2:15 AM 30.0 °F 26.5 °F 19.0 °F 64% 30.30 in 10.0 mi North 3.5 mph - N/A   Clear
2:35 AM 29.8 °F 24.9 °F 18.9 °F 64% 30.29 in 10.0 mi North 4.6 mph - N/A   Clear
2:55 AM 29.5 °F 23.4 °F 18.7 °F 64% 30.29 in 10.0 mi North 5.8 mph - N/A   Clear
3:15 AM 29.3 °F 23.2 °F 18.9 °F 65% 30.29 in 10.0 mi North 5.8 mph - N/A   Clear
3:35 AM 29.5 °F 24.5 °F 18.5 °F 64% 30.28 in 10.0 mi NNE 4.6 mph - N/A   Clear
3:55 AM 29.8 °F - 18.5 °F 63% 30.28 in 10.0 mi Calm Calm - N/A   Clear
4:15 AM 29.1 °F 25.4 °F 18.3 °F 64% 30.28 in 10.0 mi NE 3.5 mph - N/A   Clear
4:35 AM 28.4 °F - 18.3 °F 66% 30.28 in 10.0 mi Calm Calm - N/A   Clear
4:55 AM 26.8 °F - 18.5 °F 71% 30.28 in 10.0 mi Calm Calm - N/A   Clear
5:15 AM 26.2 °F - 18.5 °F 73% 30.28 in 10.0 mi Calm Calm - N/A   Clear
5:35 AM 26.2 °F - 18.3 °F 72% 30.28 in 10.0 mi Calm Calm - N/A   Clear
5:55 AM 26.1 °F 21.9 °F 18.5 °F 73% 30.29 in 10.0 mi NE 3.5 mph - N/A   Clear
6:15 AM 25.7 °F - 18.5 °F 74% 30.29 in 10.0 mi Calm Calm - N/A   Clear
6:35 AM 25.9 °F - 18.3 °F 73% 30.29 in 10.0 mi Calm Calm - N/A   Clear
6:55 AM 26.4 °F 22.4 °F 18.3 °F 71% 30.29 in 10.0 mi NE 3.5 mph - N/A   Clear
7:15 AM 26.6 °F 22.6 °F 18.7 °F 72% 30.30 in 10.0 mi NE 3.5 mph - N/A   Clear
7:35 AM 27.5 °F 23.6 °F 19.2 °F 71% 30.29 in 10.0 mi NE 3.5 mph - N/A   Clear
7:55 AM 29.1 °F - 19.2 °F 67% 30.30 in 10.0 mi Calm Calm - N/A   Clear
8:15 AM 30.6 °F 25.8 °F 19.8 °F 64% 30.31 in 10.0 mi NE 4.6 mph - N/A   Clear
8:35 AM 31.5 °F 28.1 °F 20.3 °F 63% 30.31 in 10.0 mi NE 3.5 mph - N/A   Clear
8:55 AM 32.4 °F 29.1 °F 20.5 °F 62% 30.31 in 10.0 mi NE 3.5 mph - N/A   Clear
9:15 AM 33.6 °F 29.4 °F 20.7 °F 59% 30.32 in 10.0 mi NNE 4.6 mph - N/A   Clear
9:35 AM 35.1 °F 31.0 °F 20.7 °F 56% 30.32 in 10.0 mi NE 4.6 mph - N/A   Clear
9:55 AM 36.1 °F - 20.1 °F 52% 30.32 in 10.0 mi Calm Calm - N/A   Clear
10:15 AM 37.2 °F 33.6 °F 19.8 °F 49% 30.31 in 10.0 mi East 4.6 mph - N/A   Clear
10:35 AM 38.7 °F - 18.5 °F 44% 30.31 in 10.0 mi Calm Calm - N/A   Clear
10:55 AM 39.4 °F 34.5 °F 18.3 °F 43% 30.31 in 10.0 mi ENE 6.9 mph - N/A   Clear
11:15 AM 40.3 °F 37.1 °F 18.1 °F 41% 30.29 in 10.0 mi NE 4.6 mph - N/A   Clear
11:35 AM 41.0 °F - 17.6 °F 39% 30.29 in 10.0 mi Calm Calm - N/A   Clear
11:55 AM 41.5 °F 37.8 °F 17.1 °F 37% 30.28 in 10.0 mi NNW 5.8 mph - N/A   Clear
12:15 PM 42.6 °F 39.9 °F 17.6 °F 37% 30.27 in 10.0 mi NNE 4.6 mph - N/A   Clear
12:35 PM 43.2 °F 40.5 °F 18.0 °F 36% 30.26 in 10.0 mi NE 4.6 mph - N/A   Clear
12:55 PM 43.9 °F 42.3 °F 16.5 °F 33% 30.24 in 10.0 mi NE 3.5 mph - N/A   Clear
1:15 PM 43.7 °F 41.1 °F 16.3 °F 33% 30.22 in 10.0 mi North 4.6 mph - N/A   Clear
1:35 PM 44.1 °F - 15.8 °F 32% 30.21 in 10.0 mi Calm Calm - N/A   Clear
1:55 PM 44.8 °F 40.4 °F 15.6 °F 31% 30.20 in 10.0 mi North 8.1 mph - N/A   Clear
2:15 PM 45.5 °F 42.5 °F 16.2 °F 31% 30.18 in 10.0 mi North 5.8 mph - N/A   Clear
2:35 PM 46.2 °F 43.3 °F 15.6 °F 29% 30.18 in 10.0 mi NNW 5.8 mph - N/A   Clear
2:55 PM 46.8 °F - 15.6 °F 29% 30.16 in 10.0 mi ESE 4.6 mph - N/A   Clear
3:15 PM 46.6 °F - 14.0 °F 27% 30.16 in 10.0 mi Calm Calm - N/A   Clear
3:35 PM 47.3 °F - 13.8 °F 26% 30.15 in 10.0 mi NW 3.5 mph - N/A   Clear
3:55 PM 47.7 °F - 14.9 °F 27% 30.13 in 10.0 mi NW 3.5 mph - N/A   Clear
4:15 PM 46.9 °F - 16.3 °F 29% 30.13 in 10.0 mi NW 4.6 mph - N/A   Clear
4:35 PM 47.3 °F - 17.6 °F 31% 30.12 in 10.0 mi ENE 3.5 mph - N/A   Clear
4:55 PM 47.5 °F - 17.2 °F 30% 30.11 in 10.0 mi ENE 3.5 mph - N/A   Clear
5:15 PM 47.5 °F - 16.9 °F 30% 30.11 in 10.0 mi ENE 3.5 mph - N/A   Clear
5:35 PM 47.1 °F - 16.5 °F 29% 30.11 in 10.0 mi Calm Calm - N/A   Clear
5:55 PM 46.2 °F 45.0 °F 16.5 °F 31% 30.10 in 10.0 mi East 3.5 mph - N/A   Clear
6:15 PM 45.5 °F - 17.2 °F 32% 30.10 in 10.0 mi Calm Calm - N/A   Clear
6:35 PM 44.6 °F 41.4 °F 18.5 °F 35% 30.09 in 10.0 mi East 5.8 mph - N/A   Clear
6:55 PM 43.3 °F - 18.9 °F 38% 30.09 in 10.0 mi Calm Calm - N/A   Scattered Clouds
7:15 PM 42.8 °F 41.1 °F 19.8 °F 40% 30.10 in 10.0 mi North 3.5 mph - N/A   Clear
7:35 PM 42.6 °F 39.0 °F 18.9 °F 39% 30.10 in 10.0 mi NNE 5.8 mph - N/A   Scattered Clouds
7:55 PM 42.6 °F 39.9 °F 17.8 °F 37% 30.10 in 10.0 mi NNE 4.6 mph - N/A   Mostly Cloudy
8:15 PM 42.1 °F 40.2 °F 18.0 °F 38% 30.09 in 10.0 mi NE 3.5 mph - N/A   Mostly Cloudy
8:35 PM 41.5 °F - 18.7 °F 40% 30.09 in 10.0 mi Calm Calm - N/A   Overcast
8:55 PM 41.2 °F - 18.9 °F 41% 30.10 in 10.0 mi Calm Calm - N/A   Overcast
9:15 PM 41.0 °F - 19.0 °F 41% 30.10 in 10.0 mi Calm Calm - N/A   Overcast
9:35 PM 40.5 °F - 19.6 °F 43% 30.08 in 10.0 mi Calm Calm - N/A   Overcast
9:55 PM 40.5 °F - 18.9 °F 42% 30.08 in 10.0 mi Calm Calm - N/A   Overcast
10:15 PM 40.1 °F 38.0 °F 19.2 °F 43% 30.08 in 10.0 mi NNE 3.5 mph - N/A   Mostly Cloudy
10:35 PM 39.7 °F 37.6 °F 19.2 °F 44% 30.09 in 10.0 mi NNW 3.5 mph - N/A   Overcast
10:55 PM 39.6 °F 37.4 °F 20.3 °F 46% 30.11 in 10.0 mi NNW 3.5 mph - N/A   Overcast
11:15 PM 39.4 °F 37.2 °F 20.8 °F 47% 30.10 in 10.0 mi North 3.5 mph - N/A   Overcast
11:35 PM 39.0 °F 35.7 °F 21.2 °F 49% 30.09 in 10.0 mi North 4.6 mph - N/A   Overcast
11:55 PM 38.8 °F 33.2 °F 19.0 °F 45% 30.09 in 10.0 mi North 8.1 mph - N/A   Overcast